sensor_id;sensor_type;location;lat;lon;timestamp;pressure;altitude;pressure_sealevel;temperature;humidity
11712;BME280;5912;51.034;6.984;2023-12-14T00:00:17;56604.72;;;-142.13;74.21
11712;BME280;5912;51.034;6.984;2023-12-14T00:02:43;56588.69;;;-142.13;74.49
11712;BME280;5912;51.034;6.984;2023-12-14T00:05:08;56604.72;;;-142.13;74.18
11712;BME280;5912;51.034;6.984;2023-12-14T00:07:34;56618.75;;;-142.13;74.76
11712;BME280;5912;51.034;6.984;2023-12-14T00:09:59;56570.69;;;-142.13;74.60
11712;BME280;5912;51.034;6.984;2023-12-14T00:12:24;56634.78;;;-142.13;74.67
11712;BME280;5912;51.034;6.984;2023-12-14T00:14:50;56578.69;;;-142.13;74.78
11712;BME280;5912;51.034;6.984;2023-12-14T00:17:15;56576.69;;;-142.13;74.70
11712;BME280;5912;51.034;6.984;2023-12-14T00:19:40;56612.75;;;-142.13;74.58
11712;BME280;5912;51.034;6.984;2023-12-14T00:22:05;56584.69;;;-142.13;74.75
11712;BME280;5912;51.034;6.984;2023-12-14T00:24:31;56578.69;;;-142.13;74.84
11712;BME280;5912;51.034;6.984;2023-12-14T00:26:56;56576.69;;;-142.13;75.04
11712;BME280;5912;51.034;6.984;2023-12-14T00:29:21;56578.69;;;-142.13;75.08
11712;BME280;5912;51.034;6.984;2023-12-14T00:31:47;56572.69;;;-142.13;75.29
11712;BME280;5912;51.034;6.984;2023-12-14T00:34:12;56578.69;;;-142.13;75.03
11712;BME280;5912;51.034;6.984;2023-12-14T00:36:37;56554.66;;;-142.13;74.99
11712;BME280;5912;51.034;6.984;2023-12-14T00:39:04;56574.69;;;-142.13;75.04
11712;BME280;5912;51.034;6.984;2023-12-14T00:41:29;56588.69;;;-142.13;74.90
11712;BME280;5912;51.034;6.984;2023-12-14T00:43:55;56594.72;;;-142.13;74.92
11712;BME280;5912;51.034;6.984;2023-12-14T00:46:20;56596.72;;;-142.13;75.08
11712;BME280;5912;51.034;6.984;2023-12-14T00:48:45;56620.75;;;-142.13;74.89
11712;BME280;5912;51.034;6.984;2023-12-14T00:51:11;56588.69;;;-142.13;75.06
11712;BME280;5912;51.034;6.984;2023-12-14T00:53:36;56652.81;;;-142.13;75.11
11712;BME280;5912;51.034;6.984;2023-12-14T00:56:01;56566.66;;;-142.13;75.00
11712;BME280;5912;51.034;6.984;2023-12-14T00:58:27;56582.69;;;-142.13;74.92
11712;BME280;5912;51.034;6.984;2023-12-14T01:00:52;56580.69;;;-142.13;75.13
11712;BME280;5912;51.034;6.984;2023-12-14T01:03:19;56564.66;;;-142.13;75.08
11712;BME280;5912;51.034;6.984;2023-12-14T01:05:45;56596.72;;;-142.13;75.08
11712;BME280;5912;51.034;6.984;2023-12-14T01:08:10;56592.72;;;-142.13;75.18
11712;BME280;5912;51.034;6.984;2023-12-14T01:10:35;56602.72;;;-142.13;75.18
11712;BME280;5912;51.034;6.984;2023-12-14T01:13:01;56564.66;;;-142.13;74.88
11712;BME280;5912;51.034;6.984;2023-12-14T01:15:26;56584.69;;;-142.13;75.24
11712;BME280;5912;51.034;6.984;2023-12-14T01:17:51;56580.69;;;-142.13;74.95
11712;BME280;5912;51.034;6.984;2023-12-14T01:20:16;56596.72;;;-142.13;75.25
11712;BME280;5912;51.034;6.984;2023-12-14T01:22:42;56614.75;;;-142.13;75.01
11712;BME280;5912;51.034;6.984;2023-12-14T01:25:07;56624.75;;;-142.13;75.11
11712;BME280;5912;51.034;6.984;2023-12-14T01:27:33;56612.75;;;-142.13;75.34
11712;BME280;5912;51.034;6.984;2023-12-14T01:29:58;56622.75;;;-142.13;74.82
11712;BME280;5912;51.034;6.984;2023-12-14T01:32:23;56566.66;;;-142.13;75.17
11712;BME280;5912;51.034;6.984;2023-12-14T01:34:48;56584.69;;;-142.13;75.02
11712;BME280;5912;51.034;6.984;2023-12-14T01:37:14;56598.72;;;-142.13;74.78
11712;BME280;5912;51.034;6.984;2023-12-14T01:39:39;56580.69;;;-142.13;75.10
11712;BME280;5912;51.034;6.984;2023-12-14T01:42:04;56614.75;;;-142.13;74.99
11712;BME280;5912;51.034;6.984;2023-12-14T01:44:30;56580.69;;;-142.13;75.10
11712;BME280;5912;51.034;6.984;2023-12-14T01:46:55;56610.75;;;-142.13;75.19
11712;BME280;5912;51.034;6.984;2023-12-14T01:49:20;56594.72;;;-142.13;75.20
11712;BME280;5912;51.034;6.984;2023-12-14T01:51:46;56592.72;;;-142.13;75.14
11712;BME280;5912;51.034;6.984;2023-12-14T01:54:11;56600.72;;;-142.13;75.14
11712;BME280;5912;51.034;6.984;2023-12-14T01:56:37;56586.69;;;-142.13;75.18
11712;BME280;5912;51.034;6.984;2023-12-14T01:59:02;56586.69;;;-142.13;75.50
11712;BME280;5912;51.034;6.984;2023-12-14T02:01:35;56596.72;;;-142.13;75.08
11712;BME280;5912;51.034;6.984;2023-12-14T02:04:03;56578.69;;;-142.13;75.04
11712;BME280;5912;51.034;6.984;2023-12-14T02:06:31;56596.72;;;-142.13;75.41
11712;BME280;5912;51.034;6.984;2023-12-14T02:08:56;56612.75;;;-142.13;75.32
11712;BME280;5912;51.034;6.984;2023-12-14T02:11:22;56572.69;;;-142.13;75.43
11712;BME280;5912;51.034;6.984;2023-12-14T02:13:47;56594.72;;;-142.13;75.16
11712;BME280;5912;51.034;6.984;2023-12-14T02:16:12;56566.66;;;-142.13;74.92
11712;BME280;5912;51.034;6.984;2023-12-14T02:18:37;56582.69;;;-142.13;75.27
11712;BME280;5912;51.034;6.984;2023-12-14T02:21:03;56572.69;;;-142.13;75.35
11712;BME280;5912;51.034;6.984;2023-12-14T02:23:28;56606.75;;;-142.13;75.67
11712;BME280;5912;51.034;6.984;2023-12-14T02:25:54;56586.69;;;-142.13;75.12
11712;BME280;5912;51.034;6.984;2023-12-14T02:28:20;56586.69;;;-142.13;75.16
11712;BME280;5912;51.034;6.984;2023-12-14T02:30:45;56588.69;;;-142.13;75.29
11712;BME280;5912;51.034;6.984;2023-12-14T02:33:11;56616.75;;;-142.13;74.92
11712;BME280;5912;51.034;6.984;2023-12-14T02:35:36;56590.72;;;-142.13;75.60
11712;BME280;5912;51.034;6.984;2023-12-14T02:38:01;56626.78;;;-142.13;75.42
11712;BME280;5912;51.034;6.984;2023-12-14T02:40:26;56584.69;;;-142.13;75.19
11712;BME280;5912;51.034;6.984;2023-12-14T02:42:52;56614.75;;;-142.13;75.18
11712;BME280;5912;51.034;6.984;2023-12-14T02:45:17;56592.72;;;-142.13;75.12
11712;BME280;5912;51.034;6.984;2023-12-14T02:47:42;56610.75;;;-142.13;75.15
11712;BME280;5912;51.034;6.984;2023-12-14T02:50:08;56604.72;;;-142.13;75.16
11712;BME280;5912;51.034;6.984;2023-12-14T02:52:33;56598.72;;;-142.13;74.88
11712;BME280;5912;51.034;6.984;2023-12-14T02:54:59;56598.72;;;-142.13;74.97
11712;BME280;5912;51.034;6.984;2023-12-14T02:57:24;56590.72;;;-142.13;74.79
11712;BME280;5912;51.034;6.984;2023-12-14T02:59:49;56616.75;;;-142.13;74.65
11712;BME280;5912;51.034;6.984;2023-12-14T03:02:15;56618.75;;;-142.13;75.06
11712;BME280;5912;51.034;6.984;2023-12-14T03:04:40;56600.72;;;-142.13;74.45
11712;BME280;5912;51.034;6.984;2023-12-14T03:07:06;56602.72;;;-142.13;74.75
11712;BME280;5912;51.034;6.984;2023-12-14T03:09:32;56584.69;;;-142.13;74.77
11712;BME280;5912;51.034;6.984;2023-12-14T03:11:59;56576.69;;;-142.13;75.00
11712;BME280;5912;51.034;6.984;2023-12-14T03:14:24;56638.78;;;-142.13;74.60
11712;BME280;5912;51.034;6.984;2023-12-14T03:16:50;56660.81;;;-142.13;74.48
11712;BME280;5912;51.034;6.984;2023-12-14T03:19:15;56622.75;;;-142.13;74.63
11712;BME280;5912;51.034;6.984;2023-12-14T03:21:41;56624.75;;;-142.13;74.48
11712;BME280;5912;51.034;6.984;2023-12-14T03:24:07;56642.78;;;-142.13;74.43
11712;BME280;5912;51.034;6.984;2023-12-14T03:26:32;56602.72;;;-142.13;74.96
11712;BME280;5912;51.034;6.984;2023-12-14T03:28:57;56638.78;;;-142.13;74.81
11712;BME280;5912;51.034;6.984;2023-12-14T03:31:23;56612.75;;;-142.13;74.85
11712;BME280;5912;51.034;6.984;2023-12-14T03:33:48;56620.75;;;-142.13;74.46
11712;BME280;5912;51.034;6.984;2023-12-14T03:36:13;56610.75;;;-142.13;74.04
11712;BME280;5912;51.034;6.984;2023-12-14T03:38:44;56620.75;;;-142.13;74.84
11712;BME280;5912;51.034;6.984;2023-12-14T03:41:09;56616.75;;;-142.13;74.39
11712;BME280;5912;51.034;6.984;2023-12-14T03:43:35;56596.72;;;-142.13;74.53
11712;BME280;5912;51.034;6.984;2023-12-14T03:46:00;56600.72;;;-142.13;74.41
11712;BME280;5912;51.034;6.984;2023-12-14T03:48:25;56616.75;;;-142.13;74.43
11712;BME280;5912;51.034;6.984;2023-12-14T03:50:51;56616.75;;;-142.13;74.63
11712;BME280;5912;51.034;6.984;2023-12-14T03:53:16;56644.81;;;-142.13;74.34
11712;BME280;5912;51.034;6.984;2023-12-14T03:55:41;56640.78;;;-142.13;74.06
11712;BME280;5912;51.034;6.984;2023-12-14T03:58:07;56610.75;;;-142.13;74.43
11712;BME280;5912;51.034;6.984;2023-12-14T04:00:32;56568.66;;;-142.13;74.18
11712;BME280;5912;51.034;6.984;2023-12-14T04:02:57;56596.72;;;-142.13;73.70
11712;BME280;5912;51.034;6.984;2023-12-14T04:05:23;56636.78;;;-142.13;74.03
11712;BME280;5912;51.034;6.984;2023-12-14T04:07:48;56598.72;;;-142.13;74.11
11712;BME280;5912;51.034;6.984;2023-12-14T04:10:14;56604.72;;;-142.13;74.08
11712;BME280;5912;51.034;6.984;2023-12-14T04:12:39;56608.75;;;-142.13;74.12
11712;BME280;5912;51.034;6.984;2023-12-14T04:15:06;56636.78;;;-142.13;73.99
11712;BME280;5912;51.034;6.984;2023-12-14T04:17:32;56610.75;;;-142.13;73.72
11712;BME280;5912;51.034;6.984;2023-12-14T04:19:58;56618.75;;;-142.13;73.79
11712;BME280;5912;51.034;6.984;2023-12-14T04:22:24;56616.75;;;-142.13;74.20
11712;BME280;5912;51.034;6.984;2023-12-14T04:24:50;56614.75;;;-142.13;73.92
11712;BME280;5912;51.034;6.984;2023-12-14T04:27:15;56648.81;;;-142.13;73.31
11712;BME280;5912;51.034;6.984;2023-12-14T04:29:41;56650.81;;;-142.13;74.02
11712;BME280;5912;51.034;6.984;2023-12-14T04:32:06;56628.78;;;-142.13;73.66
11712;BME280;5912;51.034;6.984;2023-12-14T04:34:31;56616.75;;;-142.13;74.24
11712;BME280;5912;51.034;6.984;2023-12-14T04:36:57;56628.78;;;-142.13;73.62
11712;BME280;5912;51.034;6.984;2023-12-14T04:39:26;56628.78;;;-142.13;73.62
11712;BME280;5912;51.034;6.984;2023-12-14T04:41:51;56664.84;;;-142.13;74.20
11712;BME280;5912;51.034;6.984;2023-12-14T04:44:20;56604.72;;;-142.13;74.07
11712;BME280;5912;51.034;6.984;2023-12-14T04:46:48;56622.75;;;-142.13;74.10
11712;BME280;5912;51.034;6.984;2023-12-14T04:49:14;56696.88;;;-142.13;74.19
11712;BME280;5912;51.034;6.984;2023-12-14T04:51:39;56610.75;;;-142.13;73.92
11712;BME280;5912;51.034;6.984;2023-12-14T04:54:05;56662.81;;;-142.13;74.25
11712;BME280;5912;51.034;6.984;2023-12-14T04:56:30;56652.81;;;-142.13;74.13
11712;BME280;5912;51.034;6.984;2023-12-14T04:58:55;56632.78;;;-142.13;74.51
11712;BME280;5912;51.034;6.984;2023-12-14T05:01:21;56662.81;;;-142.13;74.18
11712;BME280;5912;51.034;6.984;2023-12-14T05:03:46;56672.84;;;-142.13;74.52
11712;BME280;5912;51.034;6.984;2023-12-14T05:06:12;56620.75;;;-142.13;74.40
11712;BME280;5912;51.034;6.984;2023-12-14T05:08:37;56652.81;;;-142.13;74.43
11712;BME280;5912;51.034;6.984;2023-12-14T05:11:02;56636.78;;;-142.13;74.54
11712;BME280;5912;51.034;6.984;2023-12-14T05:13:28;56636.78;;;-142.13;74.32
11712;BME280;5912;51.034;6.984;2023-12-14T05:15:53;56640.78;;;-142.13;74.32
11712;BME280;5912;51.034;6.984;2023-12-14T05:18:19;56622.75;;;-142.13;74.46
11712;BME280;5912;51.034;6.984;2023-12-14T05:20:44;56612.75;;;-142.13;74.18
11712;BME280;5912;51.034;6.984;2023-12-14T05:23:11;56642.78;;;-142.13;73.93
11712;BME280;5912;51.034;6.984;2023-12-14T05:25:36;56646.81;;;-142.13;74.08
11712;BME280;5912;51.034;6.984;2023-12-14T05:28:02;56656.81;;;-142.13;74.32
11712;BME280;5912;51.034;6.984;2023-12-14T05:30:27;56640.78;;;-142.13;74.15
11712;BME280;5912;51.034;6.984;2023-12-14T05:32:52;56672.84;;;-142.13;74.27
11712;BME280;5912;51.034;6.984;2023-12-14T05:35:18;56636.78;;;-142.13;74.08
11712;BME280;5912;51.034;6.984;2023-12-14T05:37:43;56648.81;;;-142.13;74.64
11712;BME280;5912;51.034;6.984;2023-12-14T05:40:09;56630.78;;;-142.13;74.63
11712;BME280;5912;51.034;6.984;2023-12-14T05:42:35;56662.81;;;-142.13;74.90
11712;BME280;5912;51.034;6.984;2023-12-14T05:45:00;56628.78;;;-142.13;74.39
11712;BME280;5912;51.034;6.984;2023-12-14T05:47:26;56626.78;;;-142.13;74.25
11712;BME280;5912;51.034;6.984;2023-12-14T05:49:52;56652.81;;;-142.13;74.52
11712;BME280;5912;51.034;6.984;2023-12-14T05:52:17;56642.78;;;-142.13;74.32
11712;BME280;5912;51.034;6.984;2023-12-14T05:54:43;56670.84;;;-142.13;74.28
11712;BME280;5912;51.034;6.984;2023-12-14T05:57:08;56654.81;;;-142.13;73.95
11712;BME280;5912;51.034;6.984;2023-12-14T05:59:33;56648.81;;;-142.13;74.49
11712;BME280;5912;51.034;6.984;2023-12-14T06:02:00;56662.81;;;-142.13;74.71
11712;BME280;5912;51.034;6.984;2023-12-14T06:04:26;56650.81;;;-142.13;74.51
11712;BME280;5912;51.034;6.984;2023-12-14T06:06:53;56626.78;;;-142.13;74.68
11712;BME280;5912;51.034;6.984;2023-12-14T06:09:18;56662.81;;;-142.13;74.46
11712;BME280;5912;51.034;6.984;2023-12-14T06:11:49;56604.72;;;-142.13;74.15
11712;BME280;5912;51.034;6.984;2023-12-14T06:14:15;56658.81;;;-142.13;74.32
11712;BME280;5912;51.034;6.984;2023-12-14T06:16:41;56648.81;;;-142.13;74.11
11712;BME280;5912;51.034;6.984;2023-12-14T06:19:06;56648.81;;;-142.13;73.97
11712;BME280;5912;51.034;6.984;2023-12-14T06:21:31;56658.81;;;-142.13;74.06
11712;BME280;5912;51.034;6.984;2023-12-14T06:23:57;56656.81;;;-142.13;73.79
11712;BME280;5912;51.034;6.984;2023-12-14T06:26:24;56652.81;;;-142.13;74.18
11712;BME280;5912;51.034;6.984;2023-12-14T06:28:49;56656.81;;;-142.13;74.11
11712;BME280;5912;51.034;6.984;2023-12-14T06:31:15;56660.81;;;-142.13;74.04
11712;BME280;5912;51.034;6.984;2023-12-14T06:33:41;56660.81;;;-142.13;74.11
11712;BME280;5912;51.034;6.984;2023-12-14T06:36:08;56634.78;;;-142.13;73.25
11712;BME280;5912;51.034;6.984;2023-12-14T06:38:33;56654.81;;;-142.13;73.69
11712;BME280;5912;51.034;6.984;2023-12-14T06:40:59;56668.84;;;-142.13;73.72
11712;BME280;5912;51.034;6.984;2023-12-14T06:43:24;56652.81;;;-142.13;73.53
11712;BME280;5912;51.034;6.984;2023-12-14T06:45:49;56654.81;;;-142.13;73.68
11712;BME280;5912;51.034;6.984;2023-12-14T06:48:14;56678.84;;;-142.13;73.60
11712;BME280;5912;51.034;6.984;2023-12-14T06:50:40;56630.78;;;-142.13;73.29
11712;BME280;5912;51.034;6.984;2023-12-14T06:53:06;56644.81;;;-142.13;73.43
11712;BME280;5912;51.034;6.984;2023-12-14T06:55:31;56626.78;;;-142.13;73.31
11712;BME280;5912;51.034;6.984;2023-12-14T06:57:56;56642.78;;;-142.13;73.31
11712;BME280;5912;51.034;6.984;2023-12-14T07:00:22;56636.78;;;-142.13;73.48
11712;BME280;5912;51.034;6.984;2023-12-14T07:02:47;56656.81;;;-142.13;73.55
11712;BME280;5912;51.034;6.984;2023-12-14T07:05:12;56650.81;;;-142.13;73.55
11712;BME280;5912;51.034;6.984;2023-12-14T07:07:38;56668.84;;;-142.13;73.42
11712;BME280;5912;51.034;6.984;2023-12-14T07:10:03;56640.78;;;-142.13;73.64
11712;BME280;5912;51.034;6.984;2023-12-14T07:12:29;56628.78;;;-142.13;73.44
11712;BME280;5912;51.034;6.984;2023-12-14T07:14:54;56626.78;;;-142.13;73.63
11712;BME280;5912;51.034;6.984;2023-12-14T07:17:19;56632.78;;;-142.13;73.45
11712;BME280;5912;51.034;6.984;2023-12-14T07:19:45;56648.81;;;-142.13;73.59
11712;BME280;5912;51.034;6.984;2023-12-14T07:22:10;56674.84;;;-142.13;73.25
11712;BME280;5912;51.034;6.984;2023-12-14T07:24:35;56640.78;;;-142.13;74.06
11712;BME280;5912;51.034;6.984;2023-12-14T07:27:01;56668.84;;;-142.13;73.64
11712;BME280;5912;51.034;6.984;2023-12-14T07:29:26;56664.84;;;-142.13;74.12
11712;BME280;5912;51.034;6.984;2023-12-14T07:31:52;56630.78;;;-142.13;74.29
11712;BME280;5912;51.034;6.984;2023-12-14T07:34:17;56622.75;;;-142.13;73.81
11712;BME280;5912;51.034;6.984;2023-12-14T07:36:43;56654.81;;;-142.13;74.01
11712;BME280;5912;51.034;6.984;2023-12-14T07:39:08;56646.81;;;-142.13;74.12
11712;BME280;5912;51.034;6.984;2023-12-14T07:41:34;56658.81;;;-142.13;74.63
11712;BME280;5912;51.034;6.984;2023-12-14T07:44:00;56658.81;;;-142.13;74.58
11712;BME280;5912;51.034;6.984;2023-12-14T07:46:26;56654.81;;;-142.13;74.46
11712;BME280;5912;51.034;6.984;2023-12-14T07:48:51;56636.78;;;-142.13;74.42
11712;BME280;5912;51.034;6.984;2023-12-14T07:51:16;56654.81;;;-142.13;74.57
11712;BME280;5912;51.034;6.984;2023-12-14T07:53:42;56654.81;;;-142.13;74.18
11712;BME280;5912;51.034;6.984;2023-12-14T07:56:08;56632.78;;;-142.13;74.00
11712;BME280;5912;51.034;6.984;2023-12-14T07:58:33;56652.81;;;-142.13;74.15
11712;BME280;5912;51.034;6.984;2023-12-14T08:00:58;56642.78;;;-142.13;74.08
11712;BME280;5912;51.034;6.984;2023-12-14T08:03:24;56664.84;;;-142.13;73.80
11712;BME280;5912;51.034;6.984;2023-12-14T08:05:49;56652.81;;;-142.13;73.60
11712;BME280;5912;51.034;6.984;2023-12-14T08:08:14;56626.78;;;-142.13;73.56
11712;BME280;5912;51.034;6.984;2023-12-14T08:10:40;56646.81;;;-142.13;74.05
11712;BME280;5912;51.034;6.984;2023-12-14T08:13:05;56664.84;;;-142.13;74.02
11712;BME280;5912;51.034;6.984;2023-12-14T08:15:31;56648.81;;;-142.13;73.78
11712;BME280;5912;51.034;6.984;2023-12-14T08:17:56;56644.81;;;-142.13;73.51
11712;BME280;5912;51.034;6.984;2023-12-14T08:20:21;56604.72;;;-142.13;73.29
11712;BME280;5912;51.034;6.984;2023-12-14T08:22:47;56632.78;;;-142.13;73.57
11712;BME280;5912;51.034;6.984;2023-12-14T08:25:13;56640.78;;;-142.13;73.51
11712;BME280;5912;51.034;6.984;2023-12-14T08:27:42;56634.78;;;-142.13;73.41
11712;BME280;5912;51.034;6.984;2023-12-14T08:30:09;56616.75;;;-142.13;73.62
11712;BME280;5912;51.034;6.984;2023-12-14T08:32:35;56644.81;;;-142.13;73.67
11712;BME280;5912;51.034;6.984;2023-12-14T08:35:01;56658.81;;;-142.13;73.69
11712;BME280;5912;51.034;6.984;2023-12-14T08:37:26;56644.81;;;-142.13;73.58
11712;BME280;5912;51.034;6.984;2023-12-14T08:39:51;56664.84;;;-142.13;73.13
11712;BME280;5912;51.034;6.984;2023-12-14T08:42:17;56642.78;;;-142.13;73.14
11712;BME280;5912;51.034;6.984;2023-12-14T08:44:42;56664.84;;;-142.13;73.36
11712;BME280;5912;51.034;6.984;2023-12-14T08:47:08;56648.81;;;-142.13;73.80
11712;BME280;5912;51.034;6.984;2023-12-14T08:49:35;56640.78;;;-142.13;73.47
11712;BME280;5912;51.034;6.984;2023-12-14T08:52:00;56626.78;;;-142.13;73.29
11712;BME280;5912;51.034;6.984;2023-12-14T08:54:26;56644.81;;;-142.13;73.45
11712;BME280;5912;51.034;6.984;2023-12-14T08:56:51;56648.81;;;-142.13;73.23
11712;BME280;5912;51.034;6.984;2023-12-14T08:59:17;56636.78;;;-142.13;73.34
11712;BME280;5912;51.034;6.984;2023-12-14T09:01:44;56636.78;;;-142.13;73.58
11712;BME280;5912;51.034;6.984;2023-12-14T09:04:09;56642.78;;;-142.13;73.30
11712;BME280;5912;51.034;6.984;2023-12-14T09:06:35;56652.81;;;-142.13;73.54
11712;BME280;5912;51.034;6.984;2023-12-14T09:09:00;56644.81;;;-142.13;73.64
11712;BME280;5912;51.034;6.984;2023-12-14T09:11:25;56638.78;;;-142.13;73.55
11712;BME280;5912;51.034;6.984;2023-12-14T09:13:51;56654.81;;;-142.13;73.71
11712;BME280;5912;51.034;6.984;2023-12-14T09:16:16;56664.84;;;-142.13;73.76
11712;BME280;5912;51.034;6.984;2023-12-14T09:18:41;56630.78;;;-142.13;73.74
11712;BME280;5912;51.034;6.984;2023-12-14T09:21:07;56668.84;;;-142.13;73.52
11712;BME280;5912;51.034;6.984;2023-12-14T09:23:33;56648.81;;;-142.13;73.40
11712;BME280;5912;51.034;6.984;2023-12-14T09:25:58;56622.75;;;-142.13;73.51
11712;BME280;5912;51.034;6.984;2023-12-14T09:28:24;56664.84;;;-142.13;73.66
11712;BME280;5912;51.034;6.984;2023-12-14T09:30:50;56664.84;;;-142.13;73.64
11712;BME280;5912;51.034;6.984;2023-12-14T09:33:15;56636.78;;;-142.13;73.48
11712;BME280;5912;51.034;6.984;2023-12-14T09:35:40;56666.84;;;-142.13;74.01
11712;BME280;5912;51.034;6.984;2023-12-14T09:38:06;56833.13;;;-142.13;73.68
11712;BME280;5912;51.034;6.984;2023-12-14T09:40:32;56640.78;;;-142.13;73.73
11712;BME280;5912;51.034;6.984;2023-12-14T09:42:58;56949.31;;;-142.13;73.45
11712;BME280;5912;51.034;6.984;2023-12-14T09:45:29;56644.81;;;-142.13;73.53
11712;BME280;5912;51.034;6.984;2023-12-14T09:47:59;56654.81;;;-142.13;73.72
11712;BME280;5912;51.034;6.984;2023-12-14T09:50:25;56672.84;;;-142.13;73.43
11712;BME280;5912;51.034;6.984;2023-12-14T09:52:51;56650.81;;;-142.13;73.53
11712;BME280;5912;51.034;6.984;2023-12-14T09:55:17;56652.81;;;-142.13;73.55
11712;BME280;5912;51.034;6.984;2023-12-14T09:57:42;56650.81;;;-142.13;73.76
11712;BME280;5912;51.034;6.984;2023-12-14T10:00:08;56670.84;;;-142.13;73.94
11712;BME280;5912;51.034;6.984;2023-12-14T10:02:36;56648.81;;;-142.13;73.63
11712;BME280;5912;51.034;6.984;2023-12-14T10:05:02;56652.81;;;-142.13;73.30
11712;BME280;5912;51.034;6.984;2023-12-14T10:07:30;56668.84;;;-142.13;73.37
11712;BME280;5912;51.034;6.984;2023-12-14T10:10:09;56634.78;;;-142.13;73.31
11712;BME280;5912;51.034;6.984;2023-12-14T10:12:50;56847.13;;;-142.13;73.17
11712;BME280;5912;51.034;6.984;2023-12-14T10:15:15;56650.81;;;-142.13;73.44
11712;BME280;5912;51.034;6.984;2023-12-14T10:17:41;56674.84;;;-142.13;73.26
11712;BME280;5912;51.034;6.984;2023-12-14T10:20:06;56648.81;;;-142.13;73.15
11712;BME280;5912;51.034;6.984;2023-12-14T10:22:34;56632.78;;;-142.13;73.23
11712;BME280;5912;51.034;6.984;2023-12-14T10:25:02;56652.81;;;-142.13;73.37
11712;BME280;5912;51.034;6.984;2023-12-14T10:27:30;56656.81;;;-142.13;73.65
11712;BME280;5912;51.034;6.984;2023-12-14T10:29:56;56632.78;;;-142.13;73.38
11712;BME280;5912;51.034;6.984;2023-12-14T10:32:22;56686.88;;;-142.13;73.36
11712;BME280;5912;51.034;6.984;2023-12-14T10:34:48;56656.81;;;-142.13;73.35
11712;BME280;5912;51.034;6.984;2023-12-14T10:37:13;56652.81;;;-142.13;73.55
11712;BME280;5912;51.034;6.984;2023-12-14T10:39:42;56654.81;;;-142.13;73.46
11712;BME280;5912;51.034;6.984;2023-12-14T10:42:09;56692.88;;;-142.13;73.09
11712;BME280;5912;51.034;6.984;2023-12-14T10:44:36;56656.81;;;-142.13;73.13
11712;BME280;5912;51.034;6.984;2023-12-14T10:47:02;56658.81;;;-142.13;73.11
11712;BME280;5912;51.034;6.984;2023-12-14T10:49:29;56660.81;;;-142.13;72.96
11712;BME280;5912;51.034;6.984;2023-12-14T10:51:57;56680.84;;;-142.13;72.81
11712;BME280;5912;51.034;6.984;2023-12-14T10:54:24;56658.81;;;-142.13;72.44
11712;BME280;5912;51.034;6.984;2023-12-14T10:56:50;56644.81;;;-142.13;72.47
11712;BME280;5912;51.034;6.984;2023-12-14T10:59:19;56670.84;;;-142.13;72.34
11712;BME280;5912;51.034;6.984;2023-12-14T11:01:44;56660.81;;;-142.13;72.50
11712;BME280;5912;51.034;6.984;2023-12-14T11:04:10;56662.81;;;-142.13;72.29
11712;BME280;5912;51.034;6.984;2023-12-14T11:06:39;56650.81;;;-142.13;72.12
11712;BME280;5912;51.034;6.984;2023-12-14T11:09:06;56656.81;;;-142.13;72.04
11712;BME280;5912;51.034;6.984;2023-12-14T11:14:13;56692.88;;;-142.13;72.05
11712;BME280;5912;51.034;6.984;2023-12-14T11:16:39;56644.81;;;-142.13;71.96
11712;BME280;5912;51.034;6.984;2023-12-14T11:19:24;56638.78;;;-142.13;71.83
11712;BME280;5912;51.034;6.984;2023-12-14T11:24:18;56640.78;;;-142.13;72.27
11712;BME280;5912;51.034;6.984;2023-12-14T11:26:44;56630.78;;;-142.13;71.90
11712;BME280;5912;51.034;6.984;2023-12-14T11:29:09;56640.78;;;-142.13;71.82
11712;BME280;5912;51.034;6.984;2023-12-14T11:31:34;56648.81;;;-142.13;71.94
11712;BME280;5912;51.034;6.984;2023-12-14T11:34:00;56638.78;;;-142.13;71.82
11712;BME280;5912;51.034;6.984;2023-12-14T11:36:28;56648.81;;;-142.13;71.88
11712;BME280;5912;51.034;6.984;2023-12-14T11:38:54;56674.84;;;-142.13;72.32
11712;BME280;5912;51.034;6.984;2023-12-14T11:41:20;56632.78;;;-142.13;71.87
11712;BME280;5912;51.034;6.984;2023-12-14T11:43:46;56676.84;;;-142.13;72.29
11712;BME280;5912;51.034;6.984;2023-12-14T11:46:12;56664.84;;;-142.13;72.19
11712;BME280;5912;51.034;6.984;2023-12-14T11:48:37;56648.81;;;-142.13;71.66
11712;BME280;5912;51.034;6.984;2023-12-14T11:51:03;56656.81;;;-142.13;72.12
11712;BME280;5912;51.034;6.984;2023-12-14T11:53:29;56664.84;;;-142.13;72.03
11712;BME280;5912;51.034;6.984;2023-12-14T11:55:55;56688.88;;;-142.13;72.20
11712;BME280;5912;51.034;6.984;2023-12-14T11:58:20;56694.88;;;-142.13;72.13
11712;BME280;5912;51.034;6.984;2023-12-14T12:00:45;56652.81;;;-142.13;72.33
11712;BME280;5912;51.034;6.984;2023-12-14T12:03:16;56648.81;;;-142.13;72.04
11712;BME280;5912;51.034;6.984;2023-12-14T12:05:44;56652.81;;;-142.13;72.11
11712;BME280;5912;51.034;6.984;2023-12-14T12:08:11;56670.84;;;-142.13;71.84
11712;BME280;5912;51.034;6.984;2023-12-14T12:10:38;56648.81;;;-142.13;71.81
11712;BME280;5912;51.034;6.984;2023-12-14T12:13:21;56644.81;;;-142.13;71.66
11712;BME280;5912;51.034;6.984;2023-12-14T12:15:47;56652.81;;;-142.13;71.63
11712;BME280;5912;51.034;6.984;2023-12-14T12:18:15;56640.78;;;-142.13;71.62
11712;BME280;5912;51.034;6.984;2023-12-14T12:20:44;56644.81;;;-142.13;71.81
11712;BME280;5912;51.034;6.984;2023-12-14T12:23:09;56668.84;;;-142.13;71.79
11712;BME280;5912;51.034;6.984;2023-12-14T12:25:35;56614.75;;;-142.13;72.21
11712;BME280;5912;51.034;6.984;2023-12-14T12:28:01;56660.81;;;-142.13;72.24
11712;BME280;5912;51.034;6.984;2023-12-14T12:30:27;56632.78;;;-142.13;71.98
11712;BME280;5912;51.034;6.984;2023-12-14T12:32:53;56648.81;;;-142.13;72.34
11712;BME280;5912;51.034;6.984;2023-12-14T12:35:21;56654.81;;;-142.13;72.08
11712;BME280;5912;51.034;6.984;2023-12-14T12:37:47;56652.81;;;-142.13;71.45
11712;BME280;5912;51.034;6.984;2023-12-14T12:40:18;56636.78;;;-142.13;71.21
11712;BME280;5912;51.034;6.984;2023-12-14T12:42:45;56644.81;;;-142.13;71.14
11712;BME280;5912;51.034;6.984;2023-12-14T12:45:10;56662.81;;;-142.13;70.60
11712;BME280;5912;51.034;6.984;2023-12-14T12:47:35;56624.75;;;-142.13;70.93